Pagrindinis puslapis
METAR-TAF:

METAR-TAF

Oro uostai :

Ernšioldsvikas, Švedija

platuma: 63-24N, ilguma: 018-58E, Aukštis: 103 m

Dabartinis oras

Ataskaita buvo paskelbta 18 minutes, ne 09:50 UTC
Vėjas 5 kt iš Šiaurės Vakarų
Temperatūra -11°C
Drėgmė 92%
Slėgis 1004 hPa
Matomumas 10 km arba daugiau

METAR: ESNO 070950Z AUTO 32005KT 9999 NCD M11/M12 Q1004

Laikas: 11:08 (10:08 UTC)

Prognozė

Ataskaita buvo paskelbta 4 valandos ir 38 minutes, ne 05:30 UTC
Prognozė galioja nuo 07 metu 06 UTC su 07 metu 10 UTC
Vėjas 8 kt iš Vakarų/Šiaurės Vakarų
Matomumas 10 km arba daugiau
nėra debesų žemiau 1500 m ir nėra kamuolinių lietaus debesų

TAF: ESNO 070530Z 0706/0710 30008KT CAVOK

Orai ataskaitas ir orų prognozės (METAR, TAF).

turimą stotys yra geltonos ir raudonos taškus žemėlapyje.

Perkelti pele per norėdami pamatyti stoties vardą.

Tada spustelėkite, norėdami matyti oro stebėjimo ir prognozės.

Norėdami pakeisti žemėlapį: spustelėkite ant žalios mygtukų su juodo kryžiaus žemyn,; žalią mygtuką su brūkšneliu, jei norite nutolinti; arba žalių rodyklių gretimoms žemėlapius.


METAR-TAF: